Weather reports worldwide

Advertisment
Torino Venaria, Italy (16060): temperature & dewpoint: 14.06.2018 11:00:00 - 20.06.2018 11:00:00 (CEST)Torino Venaria, Italy (16060): wind speed: 14.06.2018 11:00:00 - 20.06.2018 11:00:00 (CEST)Torino Venaria, Italy (16060): wind direction: 14.06.2018 11:00:00 - 20.06.2018 11:00:00 (CEST)Torino Venaria, Italy (16060): reduced air pressure: 14.06.2018 11:00:00 - 20.06.2018 11:00:00 (CEST)Torino Venaria, Italy (16060): precipitation: 14.06.2018 11:00:00 - 20.06.2018 11:00:00 (CEST)
Date & Time tt [°C] td [°C] ff [km/h] ff [kn] dd ppp [hPa] rr [mm]
20.06.2018 11:00:00 - - - - - - -
20.06.2018 10:00:00 25,5 17,9 8 4 ENE 1018,3 -
20.06.2018 09:00:00 22,5 21,1 2 1 W 1018,6 -
20.06.2018 08:00:00 20,4 20,3 4 2 WNW 1018,7 0,0
20.06.2018 07:00:00 18,9 18,7 2 1 NW 1018,7 -
20.06.2018 06:00:00 19,1 18,9 0 0 N 1018,4 -
20.06.2018 05:00:00 18,8 18,3 0 0 N 1018,3 -
20.06.2018 04:00:00 19,6 18,2 2 1 WNW 1018,3 -
20.06.2018 03:00:00 21,0 17,9 2 1 N 1018,2 -
20.06.2018 02:00:00 21,8 19,3 2 1 NNW 1018,3 0,0
20.06.2018 01:00:00 21,9 19,8 2 1 NNW 1018,0 -
20.06.2018 00:00:00 21,3 18,8 4 2 WNW 1017,7 -
19.06.2018 23:00:00 21,7 16,8 2 1 NW 1016,8 -
19.06.2018 22:00:00 24,9 17,0 4 2 NE 1015,6 -
19.06.2018 21:00:00 26,5 18,0 5 3 NE 1014,8 -
19.06.2018 20:00:00 28,1 17,9 8 4 NE 1014,6 0,0
19.06.2018 19:00:00 28,8 17,9 5 3 NNE 1014,5 -
19.06.2018 18:00:00 29,0 16,8 9 5 ENE 1014,8 -
19.06.2018 17:00:00 29,3 17,4 9 5 E 1015,0 -
19.06.2018 16:00:00 29,4 18,5 5 3 NNW 1015,3 -
19.06.2018 15:00:00 28,8 19,4 4 2 NNW 1015,9 -
19.06.2018 14:00:00 27,7 18,4 8 4 NE 1016,6 0,0
19.06.2018 13:00:00 27,4 17,8 8 4 ENE 1017,0 -
19.06.2018 12:00:00 26,5 16,7 5 3 E 1017,2 -
19.06.2018 11:00:00 25,8 15,4 8 4 E 1017,3 -
19.06.2018 10:00:00 24,9 16,8 5 3 ENE 1017,4 -
19.06.2018 09:00:00 21,9 17,8 2 1 NW 1017,7 -
19.06.2018 08:00:00 18,8 18,7 4 2 WNW 1018,0 0,0
19.06.2018 07:00:00 16,0 15,9 0 0 N 1018,0 -
19.06.2018 06:00:00 15,2 15,1 4 2 WNW 1017,7 -
19.06.2018 05:00:00 16,2 16,1 4 2 NW 1017,1 -
19.06.2018 04:00:00 16,8 16,1 2 1 N 1016,9 -
19.06.2018 03:00:00 17,7 16,3 2 1 N 1016,7 -
19.06.2018 02:00:00 18,3 16,7 4 2 NNW 1016,5 0,0
19.06.2018 01:00:00 - - - - - - -
19.06.2018 00:00:00 20,1 16,9 4 2 NW 1015,9 -
18.06.2018 23:00:00 21,0 16,9 4 2 NW 1015,3 -
18.06.2018 22:00:00 21,0 15,5 2 1 NW 1014,3 -
18.06.2018 21:00:00 24,6 16,5 2 1 NW 1013,4 -
18.06.2018 20:00:00 27,6 14,9 2 1 N 1012,7 -
18.06.2018 19:00:00 27,7 14,6 5 3 NE 1012,4 -
18.06.2018 18:00:00 28,3 14,8 8 4 E 1012,6 -
18.06.2018 17:00:00 28,2 16,1 9 5 E 1012,9 -
18.06.2018 16:00:00 27,8 15,7 8 4 ENE 1013,1 -
18.06.2018 15:00:00 27,6 14,5 9 5 E 1013,6 -
18.06.2018 14:00:00 27,1 15,4 9 5 E 1013,9 0,0
18.06.2018 13:00:00 27,0 17,7 5 3 E 1014,1 -
18.06.2018 12:00:00 26,2 17,2 4 2 SW 1014,3 -
18.06.2018 11:00:00 24,4 17,1 4 2 WSW 1014,5 -
18.06.2018 10:00:00 23,1 17,7 4 2 SW 1014,8 -
18.06.2018 09:00:00 21,2 18,9 5 3 WSW 1014,9 -
18.06.2018 08:00:00 19,2 19,1 2 1 W 1014,7 -
18.06.2018 07:00:00 17,9 17,8 4 2 NW 1014,3 -
18.06.2018 06:00:00 17,7 15,8 8 4 NE 1013,8 -
18.06.2018 05:00:00 19,4 18,7 8 4 WNW 1013,0 -
18.06.2018 04:00:00 18,1 18,0 4 2 NW 1012,7 -
18.06.2018 03:00:00 17,7 17,6 4 2 W 1012,7 -
18.06.2018 02:00:00 18,5 18,1 4 2 WNW 1012,4 0,0
18.06.2018 01:00:00 19,4 18,7 2 1 NW 1012,3 -
18.06.2018 00:00:00 20,3 18,5 4 2 WNW 1012,1 -
17.06.2018 23:00:00 20,3 17,6 2 1 NNE 1011,8 -
17.06.2018 22:00:00 21,9 18,4 5 3 NW 1011,0 -
17.06.2018 21:00:00 24,0 18,1 4 2 NW 1010,1 -
17.06.2018 20:00:00 26,8 16,4 2 1 NE 1009,8 0,0
17.06.2018 19:00:00 27,3 17,1 5 3 ENE 1009,4 -
17.06.2018 18:00:00 26,8 16,7 5 3 E 1009,8 -
17.06.2018 17:00:00 27,4 18,1 8 4 E 1009,9 -
17.06.2018 16:00:00 27,0 18,0 8 4 S 1010,1 -
17.06.2018 15:00:00 27,1 18,1 5 3 ENE 1010,7 -
17.06.2018 14:00:00 26,9 17,6 4 2 NW 1011,2 0,0
17.06.2018 13:00:00 26,1 17,4 5 3 N 1011,5 -
17.06.2018 12:00:00 25,6 17,2 5 3 ESE 1011,7 -
17.06.2018 11:00:00 24,2 17,4 4 2 NNE 1012,1 -
17.06.2018 10:00:00 23,1 18,6 2 1 ENE 1012,2 -
17.06.2018 09:00:00 19,8 19,4 2 1 SW 1012,4 -
17.06.2018 08:00:00 17,6 17,5 2 1 NW 1012,5 -
17.06.2018 07:00:00 16,3 16,2 0 0 N 1012,3 -
17.06.2018 06:00:00 16,6 16,5 0 0 N 1012,1 -
17.06.2018 05:00:00 17,2 17,1 2 1 NW 1011,7 -
17.06.2018 04:00:00 17,5 17,4 4 2 NW 1011,7 -
17.06.2018 03:00:00 18,3 18,2 2 1 NW 1011,7 -
17.06.2018 02:00:00 18,6 18,1 2 1 NNW 1011,7 -
17.06.2018 01:00:00 18,8 18,3 5 3 NW 1011,3 -
17.06.2018 00:00:00 19,6 18,2 4 2 NNW 1011,0 -
16.06.2018 23:00:00 20,5 17,1 2 1 WNW 1010,5 -
16.06.2018 22:00:00 22,0 16,0 5 3 NW 1009,6 -
16.06.2018 21:00:00 24,1 15,8 5 3 NNE 1009,0 -
16.06.2018 20:00:00 25,0 15,5 4 2 NNE 1008,5 0,0
16.06.2018 19:00:00 26,0 15,6 9 5 NNE 1008,2 -
16.06.2018 18:00:00 26,4 15,7 5 3 NE 1008,1 -
16.06.2018 17:00:00 26,6 16,2 8 4 N 1008,3 -
16.06.2018 16:00:00 26,6 16,5 4 2 E 1008,5 -
16.06.2018 15:00:00 26,4 16,9 5 3 N 1008,9 -
16.06.2018 14:00:00 25,4 14,8 5 3 E 1009,5 0,0
16.06.2018 13:00:00 24,8 16,7 5 3 SSE 1010,0 -
16.06.2018 12:00:00 23,8 15,7 9 5 ENE 1010,2 -
16.06.2018 11:00:00 23,0 15,5 9 5 E 1010,4 -
16.06.2018 10:00:00 21,9 15,2 8 4 ENE 1010,9 -
16.06.2018 09:00:00 20,4 19,5 4 2 N 1011,0 -
16.06.2018 08:00:00 17,3 17,2 5 3 WNW 1011,3 0,0
16.06.2018 07:00:00 15,3 15,2 2 1 NW 1011,5 -
16.06.2018 06:00:00 15,0 14,9 2 1 N 1011,1 -
16.06.2018 05:00:00 15,9 15,8 4 2 WNW 1011,0 -
16.06.2018 04:00:00 16,2 16,1 2 1 NW 1011,1 -
16.06.2018 03:00:00 16,7 16,6 2 1 NW 1011,1 -
16.06.2018 02:00:00 16,6 16,5 2 1 WNW 1010,8 0,0
16.06.2018 01:00:00 17,3 16,4 2 1 NNW 1010,7 -
16.06.2018 00:00:00 18,2 17,7 4 2 NW 1010,3 -
15.06.2018 23:00:00 18,6 16,3 8 4 NW 1009,8 -
15.06.2018 22:00:00 20,7 15,4 4 2 NW 1009,0 -
15.06.2018 21:00:00 23,1 15,1 5 3 E 1008,4 -
15.06.2018 20:00:00 24,7 16,1 4 2 NNE 1008,0 0,0
15.06.2018 19:00:00 25,0 15,5 5 3 N 1007,8 -
15.06.2018 18:00:00 25,8 16,0 5 3 N 1007,8 -
15.06.2018 17:00:00 25,5 16,0 4 2 WNW 1007,9 -
15.06.2018 16:00:00 25,3 16,9 4 2 NW 1008,1 -
15.06.2018 15:00:00 24,5 15,3 8 4 SW 1008,5 -
15.06.2018 14:00:00 23,5 14,4 8 4 NNE 1008,8 0,0
15.06.2018 13:00:00 23,3 14,8 9 5 NE 1009,3 -
15.06.2018 12:00:00 22,4 15,7 9 5 ENE 1009,6 -
15.06.2018 11:00:00 21,1 14,6 9 5 ENE 1009,8 -
15.06.2018 10:00:00 20,2 14,2 9 5 NE 1010,0 -
15.06.2018 09:00:00 18,9 17,5 2 1 NNE 1010,0 -
15.06.2018 08:00:00 16,8 16,7 2 1 ENE 1009,7 0,0
15.06.2018 07:00:00 15,2 15,1 0 0 N 1009,3 -
15.06.2018 06:00:00 14,6 14,5 2 1 WSW 1009,2 -
15.06.2018 05:00:00 14,6 14,5 2 1 NW 1008,8 -
15.06.2018 04:00:00 14,5 14,4 4 2 NW 1008,7 -
15.06.2018 03:00:00 14,8 14,7 2 1 NW 1008,8 -
15.06.2018 02:00:00 15,0 14,9 2 1 NW 1008,7 -
15.06.2018 01:00:00 15,8 15,4 2 1 NW 1008,6 -
15.06.2018 00:00:00 17,0 14,9 4 2 NNW 1008,5 -
14.06.2018 23:00:00 18,1 16,0 5 3 WNW 1008,0 -
14.06.2018 22:00:00 20,3 14,8 4 2 NW 1007,0 -
14.06.2018 21:00:00 22,3 14,8 5 3 SW 1006,1 -
14.06.2018 20:00:00 24,4 15,3 8 4 SSW 1005,4 0,0
14.06.2018 19:00:00 25,3 15,0 8 4 SSW 1005,1 -
14.06.2018 18:00:00 25,8 15,1 5 3 SSW 1005,1 -
14.06.2018 17:00:00 25,7 14,7 4 2 SSW 1005,4 -
14.06.2018 16:00:00 25,4 15,9 8 4 SE 1005,9 -
14.06.2018 15:00:00 25,4 15,1 5 3 NE 1006,1 -
14.06.2018 14:00:00 24,8 14,2 8 4 WNW 1006,6 0,0
14.06.2018 13:00:00 23,7 13,2 8 4 NE 1007,3 -
14.06.2018 12:00:00 23,5 12,7 8 4 E 1007,2 -
14.06.2018 11:00:00 22,3 13,3 5 3 ENE 1007,2 -

tt = temperature
td = dewpoint
ff = wind speed
dd = wind direction
ppp = reduced air pressure
rr = precipitation

Next stations